sensor_id;sensor_type;location;lat;lon;timestamp;temperature;humidity
16907;DHT22;8570;52.380;4.654;2022-08-06T00:03:27;15.60;98.50
16907;DHT22;8570;52.380;4.654;2022-08-06T00:08:29;15.60;98.60
16907;DHT22;8570;52.380;4.654;2022-08-06T00:13:31;15.60;98.60
16907;DHT22;8570;52.380;4.654;2022-08-06T00:18:34;15.50;98.60
16907;DHT22;8570;52.380;4.654;2022-08-06T00:23:36;15.50;98.60
16907;DHT22;8570;52.380;4.654;2022-08-06T00:28:38;15.40;98.50
16907;DHT22;8570;52.380;4.654;2022-08-06T00:33:43;15.40;98.50
16907;DHT22;8570;52.380;4.654;2022-08-06T00:38:45;15.40;98.60
16907;DHT22;8570;52.380;4.654;2022-08-06T00:43:47;15.30;98.90
16907;DHT22;8570;52.380;4.654;2022-08-06T00:48:51;15.30;98.60
16907;DHT22;8570;52.380;4.654;2022-08-06T00:53:53;15.30;98.60
16907;DHT22;8570;52.380;4.654;2022-08-06T00:58:55;15.30;98.70
16907;DHT22;8570;52.380;4.654;2022-08-06T01:03:58;15.20;98.70
16907;DHT22;8570;52.380;4.654;2022-08-06T01:09:00;15.20;98.80
16907;DHT22;8570;52.380;4.654;2022-08-06T01:14:02;15.20;98.80
16907;DHT22;8570;52.380;4.654;2022-08-06T01:19:21;15.10;98.80
16907;DHT22;8570;52.380;4.654;2022-08-06T01:24:56;15.10;98.80
16907;DHT22;8570;52.380;4.654;2022-08-06T01:30:06;15.10;98.70
16907;DHT22;8570;52.380;4.654;2022-08-06T01:35:14;15.00;98.70
16907;DHT22;8570;52.380;4.654;2022-08-06T01:40:21;15.00;98.90
16907;DHT22;8570;52.380;4.654;2022-08-06T01:45:28;15.00;99.10
16907;DHT22;8570;52.380;4.654;2022-08-06T01:50:34;15.00;98.90
16907;DHT22;8570;52.380;4.654;2022-08-06T01:55:40;14.90;99.00
16907;DHT22;8570;52.380;4.654;2022-08-06T02:00:46;14.90;99.00
16907;DHT22;8570;52.380;4.654;2022-08-06T02:05:53;14.80;99.00
16907;DHT22;8570;52.380;4.654;2022-08-06T02:10:57;14.80;99.10
16907;DHT22;8570;52.380;4.654;2022-08-06T02:16:06;14.70;99.20
16907;DHT22;8570;52.380;4.654;2022-08-06T02:21:13;14.70;99.20
16907;DHT22;8570;52.380;4.654;2022-08-06T02:26:17;14.60;99.30
16907;DHT22;8570;52.380;4.654;2022-08-06T02:31:23;14.60;99.30
16907;DHT22;8570;52.380;4.654;2022-08-06T02:36:32;14.60;99.40
16907;DHT22;8570;52.380;4.654;2022-08-06T02:41:39;14.50;99.40
16907;DHT22;8570;52.380;4.654;2022-08-06T02:46:48;14.50;99.40
16907;DHT22;8570;52.380;4.654;2022-08-06T02:51:53;14.50;99.40
16907;DHT22;8570;52.380;4.654;2022-08-06T02:57:01;14.40;99.40
16907;DHT22;8570;52.380;4.654;2022-08-06T03:02:08;14.40;99.50
16907;DHT22;8570;52.380;4.654;2022-08-06T03:07:11;14.40;99.60
16907;DHT22;8570;52.380;4.654;2022-08-06T03:12:15;14.40;99.60
16907;DHT22;8570;52.380;4.654;2022-08-06T03:17:20;14.30;99.80
16907;DHT22;8570;52.380;4.654;2022-08-06T03:22:25;14.30;99.80
16907;DHT22;8570;52.380;4.654;2022-08-06T03:27:29;14.20;99.80
16907;DHT22;8570;52.380;4.654;2022-08-06T03:32:33;14.20;99.90
16907;DHT22;8570;52.380;4.654;2022-08-06T03:37:36;14.20;99.90
16907;DHT22;8570;52.380;4.654;2022-08-06T03:42:41;14.20;99.90
16907;DHT22;8570;52.380;4.654;2022-08-06T03:47:51;14.10;99.90
16907;DHT22;8570;52.380;4.654;2022-08-06T03:52:59;14.10;99.90
16907;DHT22;8570;52.380;4.654;2022-08-06T03:58:04;14.00;99.90
16907;DHT22;8570;52.380;4.654;2022-08-06T04:03:08;14.00;99.90
16907;DHT22;8570;52.380;4.654;2022-08-06T04:08:13;14.00;99.90
16907;DHT22;8570;52.380;4.654;2022-08-06T04:13:19;14.00;99.90
16907;DHT22;8570;52.380;4.654;2022-08-06T04:18:25;13.90;99.90
16907;DHT22;8570;52.380;4.654;2022-08-06T04:23:27;13.90;99.90
16907;DHT22;8570;52.380;4.654;2022-08-06T04:28:30;13.90;99.90
16907;DHT22;8570;52.380;4.654;2022-08-06T04:33:37;13.80;99.90
16907;DHT22;8570;52.380;4.654;2022-08-06T04:38:41;13.80;99.90
16907;DHT22;8570;52.380;4.654;2022-08-06T04:43:43;13.80;99.90
16907;DHT22;8570;52.380;4.654;2022-08-06T04:48:48;13.80;99.90
16907;DHT22;8570;52.380;4.654;2022-08-06T04:53:50;13.80;99.90
16907;DHT22;8570;52.380;4.654;2022-08-06T04:58:52;13.80;99.90
16907;DHT22;8570;52.380;4.654;2022-08-06T05:03:55;13.80;99.90
16907;DHT22;8570;52.380;4.654;2022-08-06T05:09:01;13.80;99.90
16907;DHT22;8570;52.380;4.654;2022-08-06T05:14:07;13.80;99.90
16907;DHT22;8570;52.380;4.654;2022-08-06T05:19:16;13.80;99.90
16907;DHT22;8570;52.380;4.654;2022-08-06T05:24:19;13.80;99.90
16907;DHT22;8570;52.380;4.654;2022-08-06T05:29:21;13.90;99.90
16907;DHT22;8570;52.380;4.654;2022-08-06T05:34:25;13.90;99.90
16907;DHT22;8570;52.380;4.654;2022-08-06T05:39:27;14.00;99.90
16907;DHT22;8570;52.380;4.654;2022-08-06T05:44:29;14.00;99.90
16907;DHT22;8570;52.380;4.654;2022-08-06T05:49:38;14.10;99.90
16907;DHT22;8570;52.380;4.654;2022-08-06T05:54:45;14.20;99.90
16907;DHT22;8570;52.380;4.654;2022-08-06T05:59:53;14.30;99.90
16907;DHT22;8570;52.380;4.654;2022-08-06T06:04:59;14.30;99.90
16907;DHT22;8570;52.380;4.654;2022-08-06T06:10:04;14.40;99.90
16907;DHT22;8570;52.380;4.654;2022-08-06T06:15:09;14.50;99.90
16907;DHT22;8570;52.380;4.654;2022-08-06T06:20:20;14.60;99.90
16907;DHT22;8570;52.380;4.654;2022-08-06T06:25:33;14.70;99.90
16907;DHT22;8570;52.380;4.654;2022-08-06T06:30:42;14.90;99.90
16907;DHT22;8570;52.380;4.654;2022-08-06T06:35:53;15.00;99.90
16907;DHT22;8570;52.380;4.654;2022-08-06T06:41:01;15.10;99.90
16907;DHT22;8570;52.380;4.654;2022-08-06T06:46:09;15.30;99.90
16907;DHT22;8570;52.380;4.654;2022-08-06T06:51:19;15.40;99.90
16907;DHT22;8570;52.380;4.654;2022-08-06T06:56:28;15.50;99.90
16907;DHT22;8570;52.380;4.654;2022-08-06T07:01:32;15.60;99.90
16907;DHT22;8570;52.380;4.654;2022-08-06T07:06:37;15.70;99.90
16907;DHT22;8570;52.380;4.654;2022-08-06T07:11:39;15.80;99.90
16907;DHT22;8570;52.380;4.654;2022-08-06T07:16:41;15.80;99.90
16907;DHT22;8570;52.380;4.654;2022-08-06T07:21:46;15.90;99.90
16907;DHT22;8570;52.380;4.654;2022-08-06T07:26:50;16.00;99.90
16907;DHT22;8570;52.380;4.654;2022-08-06T07:31:54;16.10;99.90
16907;DHT22;8570;52.380;4.654;2022-08-06T07:36:58;16.20;99.90
16907;DHT22;8570;52.380;4.654;2022-08-06T07:42:06;16.30;99.70
16907;DHT22;8570;52.380;4.654;2022-08-06T07:47:13;16.40;99.50
16907;DHT22;8570;52.380;4.654;2022-08-06T07:52:18;16.60;99.40
16907;DHT22;8570;52.380;4.654;2022-08-06T07:57:21;16.70;99.10
16907;DHT22;8570;52.380;4.654;2022-08-06T08:02:23;16.80;99.10
16907;DHT22;8570;52.380;4.654;2022-08-06T08:07:27;17.00;99.10
16907;DHT22;8570;52.380;4.654;2022-08-06T08:12:32;17.20;98.70
16907;DHT22;8570;52.380;4.654;2022-08-06T08:17:34;17.30;98.20
16907;DHT22;8570;52.380;4.654;2022-08-06T08:22:38;17.40;97.80
16907;DHT22;8570;52.380;4.654;2022-08-06T08:27:40;17.50;97.30
16907;DHT22;8570;52.380;4.654;2022-08-06T08:32:42;17.50;97.10
16907;DHT22;8570;52.380;4.654;2022-08-06T08:37:46;17.80;96.70
16907;DHT22;8570;52.380;4.654;2022-08-06T08:42:49;18.10;96.90
16907;DHT22;8570;52.380;4.654;2022-08-06T08:47:56;18.40;95.90
16907;DHT22;8570;52.380;4.654;2022-08-06T08:53:03;18.80;95.80
16907;DHT22;8570;52.380;4.654;2022-08-06T08:58:07;19.10;95.60
16907;DHT22;8570;52.380;4.654;2022-08-06T09:03:10;19.40;95.30
16907;DHT22;8570;52.380;4.654;2022-08-06T09:08:14;19.80;94.40
16907;DHT22;8570;52.380;4.654;2022-08-06T09:13:17;20.10;93.30
16907;DHT22;8570;52.380;4.654;2022-08-06T09:18:20;20.40;93.70
16907;DHT22;8570;52.380;4.654;2022-08-06T09:23:23;20.70;93.20
16907;DHT22;8570;52.380;4.654;2022-08-06T09:28:31;20.80;92.60
16907;DHT22;8570;52.380;4.654;2022-08-06T09:33:36;20.80;93.50
16907;DHT22;8570;52.380;4.654;2022-08-06T09:38:50;21.10;93.40
16907;DHT22;8570;52.380;4.654;2022-08-06T09:43:55;21.40;93.10
16907;DHT22;8570;52.380;4.654;2022-08-06T09:48:58;21.70;92.40
16907;DHT22;8570;52.380;4.654;2022-08-06T09:54:03;22.10;91.20
16907;DHT22;8570;52.380;4.654;2022-08-06T09:59:07;22.20;90.40
16907;DHT22;8570;52.380;4.654;2022-08-06T10:04:13;22.60;90.30
16907;DHT22;8570;52.380;4.654;2022-08-06T10:09:17;22.90;90.50
16907;DHT22;8570;52.380;4.654;2022-08-06T10:14:25;22.90;89.40
16907;DHT22;8570;52.380;4.654;2022-08-06T10:19:27;22.70;90.00
16907;DHT22;8570;52.380;4.654;2022-08-06T10:24:31;22.80;91.00
16907;DHT22;8570;52.380;4.654;2022-08-06T10:29:35;22.80;89.10
16907;DHT22;8570;52.380;4.654;2022-08-06T10:34:39;22.60;88.60
16907;DHT22;8570;52.380;4.654;2022-08-06T10:39:46;22.60;90.20
16907;DHT22;8570;52.380;4.654;2022-08-06T10:44:49;22.70;89.30
16907;DHT22;8570;52.380;4.654;2022-08-06T10:49:52;22.90;89.70
16907;DHT22;8570;52.380;4.654;2022-08-06T10:54:56;23.00;89.60
16907;DHT22;8570;52.380;4.654;2022-08-06T11:00:00;23.10;89.20
16907;DHT22;8570;52.380;4.654;2022-08-06T11:05:07;23.30;86.90
16907;DHT22;8570;52.380;4.654;2022-08-06T11:10:29;23.40;87.00
16907;DHT22;8570;52.380;4.654;2022-08-06T11:15:34;23.50;86.90
16907;DHT22;8570;52.380;4.654;2022-08-06T11:20:39;23.70;85.80
16907;DHT22;8570;52.380;4.654;2022-08-06T11:25:46;23.80;87.20
16907;DHT22;8570;52.380;4.654;2022-08-06T11:30:50;24.10;84.90
16907;DHT22;8570;52.380;4.654;2022-08-06T11:35:52;24.30;83.90
16907;DHT22;8570;52.380;4.654;2022-08-06T11:40:59;24.20;82.80
16907;DHT22;8570;52.380;4.654;2022-08-06T11:46:20;24.30;82.70
16907;DHT22;8570;52.380;4.654;2022-08-06T11:51:38;24.40;81.40
16907;DHT22;8570;52.380;4.654;2022-08-06T12:02:52;24.80;82.90
16907;DHT22;8570;52.380;4.654;2022-08-06T12:08:11;25.00;82.60
16907;DHT22;8570;52.380;4.654;2022-08-06T12:13:36;25.10;81.20
16907;DHT22;8570;52.380;4.654;2022-08-06T12:18:41;25.10;80.00
16907;DHT22;8570;52.380;4.654;2022-08-06T12:23:43;25.00;81.10
16907;DHT22;8570;52.380;4.654;2022-08-06T12:28:46;25.00;81.70
16907;DHT22;8570;52.380;4.654;2022-08-06T12:33:49;25.10;82.80
16907;DHT22;8570;52.380;4.654;2022-08-06T12:38:57;25.30;81.10
16907;DHT22;8570;52.380;4.654;2022-08-06T12:43:59;25.30;81.20
16907;DHT22;8570;52.380;4.654;2022-08-06T12:49:03;25.30;82.40
16907;DHT22;8570;52.380;4.654;2022-08-06T12:54:06;25.20;79.80
16907;DHT22;8570;52.380;4.654;2022-08-06T12:59:11;25.20;81.10
16907;DHT22;8570;52.380;4.654;2022-08-06T13:04:15;25.10;80.30
16907;DHT22;8570;52.380;4.654;2022-08-06T13:09:17;25.10;80.30
16907;DHT22;8570;52.380;4.654;2022-08-06T13:14:28;25.00;80.10
16907;DHT22;8570;52.380;4.654;2022-08-06T13:19:31;25.00;81.40
16907;DHT22;8570;52.380;4.654;2022-08-06T13:24:33;25.00;81.40
16907;DHT22;8570;52.380;4.654;2022-08-06T13:29:35;25.10;80.60
16907;DHT22;8570;52.380;4.654;2022-08-06T13:34:57;25.10;80.20
16907;DHT22;8570;52.380;4.654;2022-08-06T13:39:59;25.30;79.00
16907;DHT22;8570;52.380;4.654;2022-08-06T13:45:18;25.30;79.10
16907;DHT22;8570;52.380;4.654;2022-08-06T13:50:21;25.30;77.40
16907;DHT22;8570;52.380;4.654;2022-08-06T13:55:24;25.20;78.70
16907;DHT22;8570;52.380;4.654;2022-08-06T14:00:26;25.20;78.90
16907;DHT22;8570;52.380;4.654;2022-08-06T14:05:30;25.20;78.30
16907;DHT22;8570;52.380;4.654;2022-08-06T14:10:35;25.10;78.60
16907;DHT22;8570;52.380;4.654;2022-08-06T14:15:40;25.00;80.10
16907;DHT22;8570;52.380;4.654;2022-08-06T14:20:43;24.80;79.60
16907;DHT22;8570;52.380;4.654;2022-08-06T14:25:45;24.80;80.30
16907;DHT22;8570;52.380;4.654;2022-08-06T14:30:47;24.70;79.60
16907;DHT22;8570;52.380;4.654;2022-08-06T14:35:50;24.70;79.30
16907;DHT22;8570;52.380;4.654;2022-08-06T14:40:52;24.60;78.60
16907;DHT22;8570;52.380;4.654;2022-08-06T14:46:11;24.60;78.00
16907;DHT22;8570;52.380;4.654;2022-08-06T14:51:14;24.60;78.70
16907;DHT22;8570;52.380;4.654;2022-08-06T14:56:16;24.60;79.70
16907;DHT22;8570;52.380;4.654;2022-08-06T15:01:18;24.50;77.50
16907;DHT22;8570;52.380;4.654;2022-08-06T15:06:21;24.40;77.50
16907;DHT22;8570;52.380;4.654;2022-08-06T15:11:23;24.40;78.40
16907;DHT22;8570;52.380;4.654;2022-08-06T15:16:25;24.40;78.50
16907;DHT22;8570;52.380;4.654;2022-08-06T15:21:28;24.30;79.80
16907;DHT22;8570;52.380;4.654;2022-08-06T15:26:30;24.30;78.80
16907;DHT22;8570;52.380;4.654;2022-08-06T15:31:32;24.30;78.10
16907;DHT22;8570;52.380;4.654;2022-08-06T15:36:36;24.20;78.80
16907;DHT22;8570;52.380;4.654;2022-08-06T15:41:38;24.10;78.70
16907;DHT22;8570;52.380;4.654;2022-08-06T15:46:40;24.00;78.80
16907;DHT22;8570;52.380;4.654;2022-08-06T15:51:43;23.90;80.20
16907;DHT22;8570;52.380;4.654;2022-08-06T15:56:45;23.80;81.60
16907;DHT22;8570;52.380;4.654;2022-08-06T16:01:48;23.80;82.70
16907;DHT22;8570;52.380;4.654;2022-08-06T16:06:51;23.70;82.40
16907;DHT22;8570;52.380;4.654;2022-08-06T16:11:55;23.60;82.10
16907;DHT22;8570;52.380;4.654;2022-08-06T16:16:58;23.60;81.90
16907;DHT22;8570;52.380;4.654;2022-08-06T16:22:01;23.50;81.70
16907;DHT22;8570;52.380;4.654;2022-08-06T16:27:03;23.40;82.20
16907;DHT22;8570;52.380;4.654;2022-08-06T16:32:06;23.30;83.00
16907;DHT22;8570;52.380;4.654;2022-08-06T16:37:10;23.30;83.00
16907;DHT22;8570;52.380;4.654;2022-08-06T16:42:12;23.30;83.60
16907;DHT22;8570;52.380;4.654;2022-08-06T16:47:13;23.20;83.40
16907;DHT22;8570;52.380;4.654;2022-08-06T16:52:17;23.20;82.90
16907;DHT22;8570;52.380;4.654;2022-08-06T16:57:19;23.10;82.50
16907;DHT22;8570;52.380;4.654;2022-08-06T17:02:23;22.90;82.60
16907;DHT22;8570;52.380;4.654;2022-08-06T17:07:43;22.70;84.20
16907;DHT22;8570;52.380;4.654;2022-08-06T17:12:46;22.50;85.40
16907;DHT22;8570;52.380;4.654;2022-08-06T17:17:50;22.20;85.20
16907;DHT22;8570;52.380;4.654;2022-08-06T17:23:03;22.00;85.30
16907;DHT22;8570;52.380;4.654;2022-08-06T17:28:06;21.80;86.40
16907;DHT22;8570;52.380;4.654;2022-08-06T17:33:08;21.60;86.80
16907;DHT22;8570;52.380;4.654;2022-08-06T17:38:11;21.50;86.70
16907;DHT22;8570;52.380;4.654;2022-08-06T17:43:13;21.40;87.70
16907;DHT22;8570;52.380;4.654;2022-08-06T17:48:15;21.30;87.10
16907;DHT22;8570;52.380;4.654;2022-08-06T17:53:18;21.20;87.60
16907;DHT22;8570;52.380;4.654;2022-08-06T17:58:20;21.10;87.80
16907;DHT22;8570;52.380;4.654;2022-08-06T18:03:23;20.90;88.60
16907;DHT22;8570;52.380;4.654;2022-08-06T18:08:27;20.80;89.00
16907;DHT22;8570;52.380;4.654;2022-08-06T18:13:29;20.80;89.50
16907;DHT22;8570;52.380;4.654;2022-08-06T18:18:31;20.70;89.50
16907;DHT22;8570;52.380;4.654;2022-08-06T18:23:34;20.60;90.00
16907;DHT22;8570;52.380;4.654;2022-08-06T18:28:36;20.40;90.00
16907;DHT22;8570;52.380;4.654;2022-08-06T18:33:39;20.30;89.90
16907;DHT22;8570;52.380;4.654;2022-08-06T18:38:42;20.20;90.10
16907;DHT22;8570;52.380;4.654;2022-08-06T18:43:45;20.10;90.30
16907;DHT22;8570;52.380;4.654;2022-08-06T18:48:47;20.00;90.40
16907;DHT22;8570;52.380;4.654;2022-08-06T18:53:51;19.90;90.70
16907;DHT22;8570;52.380;4.654;2022-08-06T18:58:52;19.80;90.90
16907;DHT22;8570;52.380;4.654;2022-08-06T19:03:54;19.70;91.00
16907;DHT22;8570;52.380;4.654;2022-08-06T19:08:58;19.60;91.10
16907;DHT22;8570;52.380;4.654;2022-08-06T19:14:00;19.60;91.20
16907;DHT22;8570;52.380;4.654;2022-08-06T19:19:02;19.50;91.30
16907;DHT22;8570;52.380;4.654;2022-08-06T19:24:09;19.40;91.30
16907;DHT22;8570;52.380;4.654;2022-08-06T19:29:11;19.40;91.50
16907;DHT22;8570;52.380;4.654;2022-08-06T19:34:14;19.40;91.60
16907;DHT22;8570;52.380;4.654;2022-08-06T19:39:17;19.30;91.60
16907;DHT22;8570;52.380;4.654;2022-08-06T19:44:23;19.30;91.60
16907;DHT22;8570;52.380;4.654;2022-08-06T19:49:25;19.20;91.80
16907;DHT22;8570;52.380;4.654;2022-08-06T19:54:28;19.10;91.90
16907;DHT22;8570;52.380;4.654;2022-08-06T19:59:30;19.10;92.00
16907;DHT22;8570;52.380;4.654;2022-08-06T20:04:32;19.00;92.10
16907;DHT22;8570;52.380;4.654;2022-08-06T20:09:36;18.90;92.30
16907;DHT22;8570;52.380;4.654;2022-08-06T20:14:38;18.90;92.70
16907;DHT22;8570;52.380;4.654;2022-08-06T20:19:40;18.80;92.70
16907;DHT22;8570;52.380;4.654;2022-08-06T20:24:43;18.80;92.80
16907;DHT22;8570;52.380;4.654;2022-08-06T20:29:45;18.70;93.00
16907;DHT22;8570;52.380;4.654;2022-08-06T20:34:53;18.70;93.10
16907;DHT22;8570;52.380;4.654;2022-08-06T20:39:56;18.60;93.20
16907;DHT22;8570;52.380;4.654;2022-08-06T20:44:58;18.60;93.30
16907;DHT22;8570;52.380;4.654;2022-08-06T20:50:00;18.50;93.20
16907;DHT22;8570;52.380;4.654;2022-08-06T20:55:05;18.50;93.40
16907;DHT22;8570;52.380;4.654;2022-08-06T21:00:11;18.40;93.50
16907;DHT22;8570;52.380;4.654;2022-08-06T21:05:14;18.30;93.60
16907;DHT22;8570;52.380;4.654;2022-08-06T21:10:19;18.30;93.70
16907;DHT22;8570;52.380;4.654;2022-08-06T21:15:21;18.20;93.80
16907;DHT22;8570;52.380;4.654;2022-08-06T21:20:23;18.20;93.90
16907;DHT22;8570;52.380;4.654;2022-08-06T21:25:26;18.10;94.00
16907;DHT22;8570;52.380;4.654;2022-08-06T21:30:31;18.00;94.20
16907;DHT22;8570;52.380;4.654;2022-08-06T21:35:33;17.90;94.20
16907;DHT22;8570;52.380;4.654;2022-08-06T21:40:37;17.90;94.30
16907;DHT22;8570;52.380;4.654;2022-08-06T21:45:39;17.80;94.40
16907;DHT22;8570;52.380;4.654;2022-08-06T21:50:40;17.70;94.50
16907;DHT22;8570;52.380;4.654;2022-08-06T21:55:44;17.60;95.00
16907;DHT22;8570;52.380;4.654;2022-08-06T22:00:46;17.60;94.80
16907;DHT22;8570;52.380;4.654;2022-08-06T22:05:48;17.50;94.80
16907;DHT22;8570;52.380;4.654;2022-08-06T22:10:51;17.40;95.00
16907;DHT22;8570;52.380;4.654;2022-08-06T22:15:53;17.30;95.10
16907;DHT22;8570;52.380;4.654;2022-08-06T22:20:55;17.30;95.10
16907;DHT22;8570;52.380;4.654;2022-08-06T22:25:59;17.20;95.30
16907;DHT22;8570;52.380;4.654;2022-08-06T22:31:01;17.20;95.40
16907;DHT22;8570;52.380;4.654;2022-08-06T22:36:03;17.10;95.50
16907;DHT22;8570;52.380;4.654;2022-08-06T22:41:06;17.10;95.70
16907;DHT22;8570;52.380;4.654;2022-08-06T22:46:08;17.00;95.80
16907;DHT22;8570;52.380;4.654;2022-08-06T22:51:10;16.90;95.90
16907;DHT22;8570;52.380;4.654;2022-08-06T22:56:13;16.90;96.00
16907;DHT22;8570;52.380;4.654;2022-08-06T23:01:15;16.80;96.00
16907;DHT22;8570;52.380;4.654;2022-08-06T23:06:17;16.70;96.00
16907;DHT22;8570;52.380;4.654;2022-08-06T23:11:20;16.70;96.30
16907;DHT22;8570;52.380;4.654;2022-08-06T23:16:22;16.60;96.40
16907;DHT22;8570;52.380;4.654;2022-08-06T23:21:24;16.60;96.60
16907;DHT22;8570;52.380;4.654;2022-08-06T23:26:36;16.50;96.60
16907;DHT22;8570;52.380;4.654;2022-08-06T23:31:39;16.50;96.70
16907;DHT22;8570;52.380;4.654;2022-08-06T23:36:41;16.40;96.80
16907;DHT22;8570;52.380;4.654;2022-08-06T23:41:44;16.30;97.00
16907;DHT22;8570;52.380;4.654;2022-08-06T23:46:46;16.30;97.10
16907;DHT22;8570;52.380;4.654;2022-08-06T23:51:49;16.20;97.20
16907;DHT22;8570;52.380;4.654;2022-08-06T23:56:52;16.20;97.30
